Aérodrome :
LOGIN :

S'inscrire | Disclaimer

   EN    FR    IT 

 










Légende :    VFR   VFR Marginal   IFR   IFR Intensif   IFR Très Intensif
Visi : 
Plafond : 
>= 8 km
>= 3000ft
5 à 8 km
1000 à 3000 ft
1500m à 5 km
500 à 1000 ft
800 à 1500m
200 à 500 ft
< 800m
< 200 ft
Symboles :   Orages  Brouillard  Fortes neiges  Fortes précipitations  Vent > 20 kt
SIGMETs :   Divers  Orages  Givrage  Turbulence  Onde Orograph.  Cendres Volcan.






- Altitude de l'aérodrome : 249 ft


EGOS - RAF Shawbury

DERNIER METAR :
  • 110920Z 26013KT 9999 -DZ FEW008 BKN020 08/07 Q1002 BECMG BKN030 RMK WHT BECMG BLU

METARs EXPIRÉS :
  • 110905Z 26009KT 9999 -DZ FEW007 BKN018 08/07 Q1002 BECMG BKN030 RMK WHT BECMG BLU
  • 110850Z 26008KT 9999 FEW007 BKN027 08/07 Q1001 TEMPO -SHRA BKN020 RMK BLU TEMPO WHT
  • 110820Z 25007KT 9999 -DZ BKN020 08/07 Q1001 BECMG BKN030 RMK WHT BECMG BLU
  • 110810Z 24006KT 9999 6000W DZ BKN020 08/07 Q1001 RMK WHT
  • 110750Z 22006KT 9999 BKN023 08/07 Q1001 RMK WHT
  • 110720Z AUTO 22007KT 9999 // FEW032/// OVC042/// 08/07 Q1000
  • 110650Z AUTO 25006KT 9999 // OVC048/// 08/07 Q1000
  • 110620Z AUTO 24007KT 8000 -RA FEW031/// SCT039/// BKN049/// 08/07 Q0999
  • 110550Z AUTO 26006KT 9999 SCT028/// 08/06 Q0999
  • 110520Z AUTO 26010KT 9999 FEW036/// 08/05 Q0999
  • 110450Z AUTO 26012KT 9999 BKN038/// 09/06 Q0998
  • 110420Z AUTO 26009KT 9999 BKN039/// 08/06 Q0998

TAF AMD TAF EGOS
Valide du 11 à 09h jusqu'au 11 à 18h UTC


110820Z 1109/1118 26010KT 9999 BKN030
PROB30
TEMPO 1109/1110 7000 -SHRA SCT012
PROB30
TEMPO 1110/1116 SCT018



MET'MAP, la Météo Aéronautique d'un coup d'oeil ! - Copyright ORBIFLY Décembre 2007 - Disclaimer

ORBIFLY MET'MAP TEAM :

Programmation & Développement : Alexandra Zaïnal
Sur une idée originale de : Baudouin d'Aumeries
Soutien technique & logistique : Manuel Goepfert
Assistance : Marc-Olivier Méhu




SOURCES & CREDITS :

   NOAA